createdAt,value
2023-01-19T00:00:53.995Z,49.15
2023-01-19T00:01:53.958Z,48.02
2023-01-19T00:02:54.049Z,49.31
2023-01-19T00:03:53.985Z,47.53
2023-01-19T00:04:53.951Z,49.47
2023-01-19T00:05:54.009Z,49.15
2023-01-19T00:06:53.939Z,50.11
2023-01-19T00:07:53.938Z,48.34
2023-01-19T00:08:53.927Z,48.82
2023-01-19T00:09:53.917Z,50.27
2023-01-19T00:10:53.927Z,49.15
2023-01-19T00:11:53.918Z,48.50
2023-01-19T00:12:53.909Z,48.18
2023-01-19T00:13:53.892Z,48.02
2023-01-19T00:14:53.890Z,48.18
2023-01-19T00:15:53.924Z,52.37
2023-01-19T00:16:53.876Z,48.66
2023-01-19T00:17:53.868Z,48.34
2023-01-19T00:18:53.878Z,47.86
2023-01-19T00:19:53.862Z,47.70
2023-01-19T00:20:53.872Z,47.05
2023-01-19T00:21:53.850Z,48.82
2023-01-19T00:22:53.849Z,48.82
2023-01-19T00:23:53.834Z,50.43
2023-01-19T00:24:53.831Z,47.53
2023-01-19T00:25:53.841Z,48.34
2023-01-19T00:26:53.818Z,50.92
2023-01-19T00:27:53.806Z,49.15
2023-01-19T00:28:53.799Z,49.31
2023-01-19T00:29:53.788Z,50.27
2023-01-19T00:30:53.795Z,49.15
2023-01-19T00:31:53.807Z,51.40
2023-01-19T00:32:53.773Z,48.02
2023-01-19T00:33:53.777Z,47.86
2023-01-19T00:34:53.759Z,46.89
2023-01-19T00:35:53.751Z,47.53
2023-01-19T00:36:53.758Z,49.15
2023-01-19T00:37:53.733Z,47.37
2023-01-19T00:38:53.727Z,47.37
2023-01-19T00:39:53.725Z,47.21
2023-01-19T00:40:53.724Z,48.34
2023-01-19T00:41:53.728Z,47.37
2023-01-19T00:42:53.714Z,47.53
2023-01-19T00:43:53.698Z,46.73
2023-01-19T00:44:53.691Z,47.70
2023-01-19T00:45:53.745Z,49.63
2023-01-19T00:46:53.707Z,48.98
2023-01-19T00:47:53.673Z,49.79
2023-01-19T00:48:53.657Z,49.15
2023-01-19T00:49:53.666Z,48.82
2023-01-19T00:50:53.654Z,46.89
2023-01-19T00:51:53.660Z,46.41
2023-01-19T00:52:53.653Z,47.21
2023-01-19T00:53:53.613Z,47.05
2023-01-19T00:54:53.631Z,48.50
2023-01-19T00:55:53.614Z,48.34
2023-01-19T00:56:53.606Z,48.66
2023-01-19T00:57:53.619Z,47.37
2023-01-19T00:58:53.597Z,47.70
2023-01-19T00:59:53.578Z,49.47
2023-01-19T01:00:53.697Z,48.02
2023-01-19T01:01:53.900Z,49.15
2023-01-19T01:02:53.712Z,47.37
2023-01-19T01:03:53.566Z,46.57
2023-01-19T01:04:53.562Z,50.43
2023-01-19T01:05:53.559Z,47.86
2023-01-19T01:06:53.533Z,49.63
2023-01-19T01:07:53.559Z,51.72
2023-01-19T01:08:53.534Z,47.05
2023-01-19T01:09:53.542Z,47.05
2023-01-19T01:10:53.522Z,47.70
2023-01-19T01:11:53.509Z,48.50
2023-01-19T01:12:57.313Z,48.02
2023-01-19T01:13:53.510Z,47.86
2023-01-19T01:14:53.495Z,47.53
2023-01-19T01:15:53.519Z,47.86
2023-01-19T01:16:53.584Z,47.37
2023-01-19T01:17:53.477Z,48.82
2023-01-19T01:18:53.489Z,48.18
2023-01-19T01:19:53.461Z,47.86
2023-01-19T01:20:55.331Z,49.15
2023-01-19T01:21:53.437Z,48.50
2023-01-19T01:22:53.445Z,47.70
2023-01-19T01:23:53.445Z,47.05
2023-01-19T01:24:53.420Z,48.02
2023-01-19T01:25:53.434Z,47.70
2023-01-19T01:26:53.410Z,46.89
2023-01-19T01:27:53.403Z,46.89
2023-01-19T01:28:53.409Z,47.21
2023-01-19T01:29:53.396Z,48.98
2023-01-19T01:30:53.380Z,46.57
2023-01-19T01:31:53.423Z,47.05
2023-01-19T01:32:53.368Z,47.53
2023-01-19T01:33:53.382Z,49.15
2023-01-19T01:34:53.351Z,47.70
2023-01-19T01:35:53.333Z,48.34
2023-01-19T01:36:53.341Z,49.47
2023-01-19T01:37:53.343Z,49.31
2023-01-19T01:38:53.332Z,48.50
2023-01-19T01:39:53.328Z,48.34
2023-01-19T01:40:53.334Z,47.86
2023-01-19T01:41:54.016Z,47.37
2023-01-19T01:42:53.297Z,46.73
2023-01-19T01:43:53.308Z,47.37
2023-01-19T01:44:53.291Z,48.50
2023-01-19T01:45:53.374Z,50.76
2023-01-19T01:46:53.276Z,49.31
2023-01-19T01:47:53.266Z,48.18
2023-01-19T01:48:53.282Z,51.56
2023-01-19T01:49:53.289Z,48.18
2023-01-19T01:50:53.251Z,48.34
2023-01-19T01:51:53.256Z,48.34
2023-01-19T01:53:03.853Z,50.43
2023-01-19T01:53:54.258Z,51.56
2023-01-19T01:54:53.239Z,48.34
2023-01-19T01:55:53.245Z,49.15
2023-01-19T01:56:53.218Z,47.86
2023-01-19T01:57:53.205Z,46.08
2023-01-19T01:58:53.194Z,46.89
2023-01-19T01:59:53.192Z,50.27
2023-01-19T02:00:54.399Z,49.79
2023-01-19T02:01:53.240Z,47.86
2023-01-19T02:02:53.223Z,50.92
2023-01-19T02:03:53.165Z,51.24
2023-01-19T02:04:53.170Z,47.86
2023-01-19T02:05:53.167Z,47.37
2023-01-19T02:06:53.169Z,48.02
2023-01-19T02:07:53.144Z,49.31
2023-01-19T02:08:53.137Z,52.37
2023-01-19T02:09:53.132Z,48.98
2023-01-19T02:10:53.125Z,50.27
2023-01-19T02:11:53.116Z,48.82
2023-01-19T02:12:53.113Z,50.43
2023-01-19T02:13:53.125Z,46.89
2023-01-19T02:14:53.094Z,47.05
2023-01-19T02:15:53.085Z,49.15
2023-01-19T02:16:53.119Z,50.11
2023-01-19T02:17:53.076Z,48.02
2023-01-19T02:18:53.069Z,46.41
2023-01-19T02:19:53.051Z,47.86
2023-01-19T02:20:53.048Z,48.98
2023-01-19T02:21:53.046Z,47.70
2023-01-19T02:22:53.045Z,49.79
2023-01-19T02:23:53.040Z,50.27
2023-01-19T02:24:53.020Z,47.53
2023-01-19T02:25:53.021Z,46.89
2023-01-19T02:26:53.014Z,48.82
2023-01-19T02:27:53.017Z,49.79
2023-01-19T02:28:53.001Z,49.47
2023-01-19T02:29:52.995Z,48.50
2023-01-19T02:30:53.027Z,47.70
2023-01-19T02:31:52.993Z,47.37
2023-01-19T02:32:52.981Z,47.21
2023-01-19T02:33:52.968Z,49.31
2023-01-19T02:34:52.956Z,49.79
2023-01-19T02:35:52.955Z,48.02
2023-01-19T02:36:52.975Z,47.70
2023-01-19T02:37:52.938Z,48.18
2023-01-19T02:38:52.945Z,48.34
2023-01-19T02:39:52.933Z,47.53
2023-01-19T02:40:52.926Z,49.47
2023-01-19T02:41:52.910Z,47.70
2023-01-19T02:42:52.925Z,48.50
2023-01-19T02:43:52.917Z,48.34
2023-01-19T02:44:52.891Z,48.66
2023-01-19T02:45:52.920Z,48.82
2023-01-19T02:46:52.876Z,48.02
2023-01-19T02:47:52.881Z,50.43
2023-01-19T02:48:52.890Z,48.66
2023-01-19T02:49:52.879Z,50.27
2023-01-19T02:50:52.852Z,48.34
2023-01-19T02:51:52.859Z,47.37
2023-01-19T02:52:52.841Z,47.86
2023-01-19T02:53:52.836Z,47.86
2023-01-19T02:54:52.841Z,48.82
2023-01-19T02:55:52.823Z,48.34
2023-01-19T02:56:52.821Z,47.86
2023-01-19T02:57:52.809Z,48.50
2023-01-19T02:58:52.809Z,52.05
2023-01-19T02:59:52.796Z,51.56
2023-01-19T03:00:52.848Z,49.31
2023-01-19T03:01:52.863Z,48.18
2023-01-19T03:02:52.829Z,48.98
2023-01-19T03:03:52.773Z,47.21
2023-01-19T03:04:52.772Z,50.92
2023-01-19T03:05:52.770Z,47.86
2023-01-19T03:06:52.757Z,48.82
2023-01-19T03:07:52.789Z,47.86
2023-01-19T03:08:52.776Z,47.37
2023-01-19T03:09:52.745Z,50.27
2023-01-19T03:10:52.749Z,51.40
2023-01-19T03:11:52.725Z,49.31
2023-01-19T03:12:52.721Z,48.18
2023-01-19T03:13:52.726Z,49.31
2023-01-19T03:14:52.685Z,47.53
2023-01-19T03:15:52.932Z,50.60
2023-01-19T03:16:52.739Z,48.34
2023-01-19T03:17:52.686Z,49.15
2023-01-19T03:18:52.672Z,48.02
2023-01-19T03:19:52.658Z,49.95
2023-01-19T03:20:52.666Z,49.63
2023-01-19T03:21:52.651Z,49.31
2023-01-19T03:22:52.638Z,49.31
2023-01-19T03:23:52.640Z,51.72
2023-01-19T03:24:52.642Z,50.11
2023-01-19T03:25:52.624Z,49.47
2023-01-19T03:26:52.620Z,49.31
2023-01-19T03:27:52.611Z,51.56
2023-01-19T03:28:52.611Z,52.53
2023-01-19T03:29:52.598Z,48.34
2023-01-19T03:30:52.602Z,47.86
2023-01-19T03:31:52.591Z,47.70
2023-01-19T03:32:52.580Z,51.88
2023-01-19T03:33:52.572Z,48.82
2023-01-19T03:34:52.579Z,49.79
2023-01-19T03:35:52.546Z,50.60
2023-01-19T03:36:52.559Z,51.88
2023-01-19T03:37:52.539Z,51.56
2023-01-19T03:38:52.529Z,50.11
2023-01-19T03:39:52.548Z,50.60
2023-01-19T03:40:52.522Z,48.66
2023-01-19T03:41:52.507Z,51.56
2023-01-19T03:42:52.522Z,53.33
2023-01-19T03:43:52.495Z,50.11
2023-01-19T03:44:52.496Z,49.95
2023-01-19T03:45:52.528Z,49.95
2023-01-19T03:46:52.480Z,48.02
2023-01-19T03:47:52.472Z,52.21
2023-01-19T03:48:52.463Z,48.98
2023-01-19T03:49:52.469Z,52.05
2023-01-19T03:50:52.452Z,50.60
2023-01-19T03:51:52.460Z,50.43
2023-01-19T03:52:52.542Z,55.27
2023-01-19T03:53:52.450Z,53.50
2023-01-19T03:54:52.414Z,49.31
2023-01-19T03:55:52.446Z,49.95
2023-01-19T03:56:52.459Z,51.24
2023-01-19T03:57:52.409Z,53.82
2023-01-19T03:58:52.400Z,53.50
2023-01-19T03:59:52.386Z,53.66
2023-01-19T04:00:52.402Z,54.62
2023-01-19T04:01:52.458Z,52.37
2023-01-19T04:02:52.450Z,52.37
2023-01-19T04:03:52.371Z,48.82
2023-01-19T04:04:52.358Z,50.11
2023-01-19T04:05:52.345Z,54.14
2023-01-19T04:06:52.351Z,51.72
2023-01-19T04:07:52.359Z,53.17
2023-01-19T04:08:52.344Z,55.91
2023-01-19T04:09:52.327Z,55.59
2023-01-19T04:10:52.333Z,50.27
2023-01-19T04:11:52.339Z,54.95
2023-01-19T04:12:52.331Z,53.01
2023-01-19T04:13:52.318Z,53.33
2023-01-19T04:14:52.287Z,54.30
2023-01-19T04:15:52.304Z,56.07
2023-01-19T04:16:52.278Z,54.14
2023-01-19T04:17:52.286Z,52.37
2023-01-19T04:18:52.262Z,53.17
2023-01-19T04:19:52.261Z,55.75
2023-01-19T04:20:52.246Z,55.11
2023-01-19T04:21:52.246Z,57.85
2023-01-19T04:22:52.224Z,57.85
2023-01-19T04:23:52.231Z,58.17
2023-01-19T04:24:52.215Z,57.20
2023-01-19T04:25:52.206Z,53.82
2023-01-19T04:26:52.205Z,56.72
2023-01-19T04:27:52.199Z,56.40
2023-01-19T04:28:52.188Z,57.04
2023-01-19T04:29:52.194Z,57.85
2023-01-19T04:30:52.251Z,57.52
2023-01-19T04:31:52.173Z,56.56
2023-01-19T04:32:52.165Z,57.04
2023-01-19T04:33:52.178Z,58.49
2023-01-19T04:34:52.151Z,57.69
2023-01-19T04:35:54.206Z,56.72
2023-01-19T04:36:53.142Z,58.97
2023-01-19T04:37:52.180Z,55.27
2023-01-19T04:38:52.126Z,55.91
2023-01-19T04:39:52.122Z,58.81
2023-01-19T04:40:52.111Z,57.85
2023-01-19T04:41:52.104Z,56.72
2023-01-19T04:42:52.106Z,57.52
2023-01-19T04:43:52.099Z,58.01
2023-01-19T04:44:52.099Z,56.56
2023-01-19T04:45:52.078Z,58.97
2023-01-19T04:46:52.072Z,56.40
2023-01-19T04:47:52.070Z,58.17
2023-01-19T04:48:52.059Z,59.14
2023-01-19T04:49:52.072Z,59.94
2023-01-19T04:50:52.043Z,58.97
2023-01-19T04:51:52.044Z,58.65
2023-01-19T04:52:52.040Z,59.78
2023-01-19T04:53:52.022Z,57.52
2023-01-19T04:54:52.018Z,56.56
2023-01-19T04:55:52.017Z,59.94
2023-01-19T04:56:51.999Z,56.24
2023-01-19T04:57:51.997Z,57.85
2023-01-19T04:58:51.997Z,56.56
2023-01-19T04:59:52.986Z,57.36
2023-01-19T05:00:52.017Z,56.40
2023-01-19T05:01:52.040Z,56.56
2023-01-19T05:02:52.003Z,56.88
2023-01-19T05:03:51.987Z,58.17
2023-01-19T05:04:51.963Z,57.36
2023-01-19T05:05:51.952Z,56.24
2023-01-19T05:06:51.949Z,56.88
2023-01-19T05:07:51.938Z,56.56
2023-01-19T05:08:51.932Z,58.97
2023-01-19T05:09:51.924Z,57.20
2023-01-19T05:10:51.968Z,58.97
2023-01-19T05:11:51.915Z,59.14
2023-01-19T05:12:51.897Z,59.62
2023-01-19T05:13:51.902Z,59.78
2023-01-19T05:14:51.885Z,58.01
2023-01-19T05:15:51.897Z,60.10
2023-01-19T05:16:51.934Z,58.01
2023-01-19T05:17:51.866Z,59.14
2023-01-19T05:18:51.859Z,58.17
2023-01-19T05:19:51.890Z,58.81
2023-01-19T05:20:51.850Z,59.62
2023-01-19T05:21:51.899Z,57.69
2023-01-19T05:22:51.847Z,57.69
2023-01-19T05:23:51.829Z,60.42
2023-01-19T05:24:51.833Z,57.20
2023-01-19T05:25:51.808Z,60.26
2023-01-19T05:26:51.838Z,59.46
2023-01-19T05:27:51.817Z,58.01
2023-01-19T05:28:51.817Z,58.65
2023-01-19T05:29:51.790Z,59.62
2023-01-19T05:30:51.862Z,60.91
2023-01-19T05:31:51.808Z,59.30
2023-01-19T05:32:51.781Z,59.62
2023-01-19T05:33:51.786Z,60.59
2023-01-19T05:34:51.771Z,60.42
2023-01-19T05:35:51.762Z,61.39
2023-01-19T05:36:51.789Z,59.62
2023-01-19T05:37:51.752Z,59.30
2023-01-19T05:38:51.733Z,59.62
2023-01-19T05:39:51.726Z,59.94
2023-01-19T05:40:51.710Z,59.78
2023-01-19T05:41:51.733Z,58.81
2023-01-19T05:42:51.698Z,61.39
2023-01-19T05:43:51.704Z,59.30
2023-01-19T05:44:51.690Z,59.62
2023-01-19T05:45:51.690Z,61.39
2023-01-19T05:46:51.760Z,59.94
2023-01-19T05:47:51.697Z,59.62
2023-01-19T05:48:51.688Z,58.65
2023-01-19T05:49:51.653Z,61.23
2023-01-19T05:50:51.657Z,60.26
2023-01-19T05:51:51.650Z,60.59
2023-01-19T05:52:51.630Z,58.33
2023-01-19T05:53:51.626Z,58.97
2023-01-19T05:54:51.630Z,58.49
2023-01-19T05:55:51.605Z,58.49
2023-01-19T05:56:51.601Z,60.10
2023-01-19T05:57:51.623Z,59.94
2023-01-19T05:58:51.589Z,57.69
2023-01-19T05:59:51.589Z,58.49
2023-01-19T06:00:51.625Z,58.33
2023-01-19T06:01:51.623Z,57.04
2023-01-19T06:02:51.613Z,59.78
2023-01-19T06:03:51.566Z,61.39
2023-01-19T06:04:51.553Z,57.69
2023-01-19T06:05:51.562Z,61.07
2023-01-19T06:06:51.554Z,59.62
2023-01-19T06:07:51.534Z,59.30
2023-01-19T06:08:51.530Z,58.01
2023-01-19T06:09:51.515Z,58.49
2023-01-19T06:10:51.517Z,60.59
2023-01-19T06:11:51.501Z,60.75
2023-01-19T06:12:51.517Z,59.62
2023-01-19T06:13:51.487Z,58.65
2023-01-19T06:14:51.489Z,60.42
2023-01-19T06:15:51.481Z,59.62
2023-01-19T06:16:51.472Z,59.62
2023-01-19T06:17:51.595Z,59.94
2023-01-19T06:18:51.466Z,59.14
2023-01-19T06:19:51.447Z,59.94
2023-01-19T06:20:51.446Z,59.62
2023-01-19T06:21:51.442Z,59.14
2023-01-19T06:22:51.449Z,59.78
2023-01-19T06:23:51.430Z,59.78
2023-01-19T06:24:51.420Z,58.17
2023-01-19T06:25:51.410Z,61.55
2023-01-19T06:26:51.408Z,59.94
2023-01-19T06:27:51.394Z,60.26
2023-01-19T06:28:51.426Z,60.59
2023-01-19T06:29:51.382Z,61.07
2023-01-19T06:30:51.469Z,59.62
2023-01-19T06:31:51.471Z,60.59
2023-01-19T06:32:51.390Z,60.10
2023-01-19T06:33:51.393Z,60.10
2023-01-19T06:34:53.324Z,58.49
2023-01-19T06:35:51.345Z,58.97
2023-01-19T06:36:51.336Z,60.75
2023-01-19T06:37:51.338Z,62.04
2023-01-19T06:38:51.330Z,60.10
2023-01-19T06:39:51.334Z,58.97
2023-01-19T06:40:51.310Z,59.14
2023-01-19T06:41:51.313Z,58.97
2023-01-19T06:42:51.305Z,59.30
2023-01-19T06:43:51.285Z,60.75
2023-01-19T06:44:51.308Z,60.59
2023-01-19T06:45:51.361Z,60.59
2023-01-19T06:46:51.276Z,60.26
2023-01-19T06:47:52.305Z,59.46
2023-01-19T06:48:51.265Z,59.30
2023-01-19T06:49:51.265Z,59.14
2023-01-19T06:50:51.268Z,60.26
2023-01-19T06:51:51.246Z,62.04
2023-01-19T06:52:51.242Z,59.78
2023-01-19T06:53:51.244Z,59.30
2023-01-19T06:54:51.236Z,60.26
2023-01-19T06:55:51.217Z,59.62
2023-01-19T06:56:51.213Z,59.30
2023-01-19T06:57:51.212Z,56.72
2023-01-19T06:58:51.198Z,57.52
2023-01-19T06:59:51.185Z,57.04
2023-01-19T07:00:51.306Z,60.91
2023-01-19T07:01:51.243Z,60.26
2023-01-19T07:02:51.201Z,59.30
2023-01-19T07:03:51.169Z,58.17
2023-01-19T07:04:51.151Z,59.30
2023-01-19T07:05:51.145Z,60.10
2023-01-19T07:06:51.142Z,59.30
2023-01-19T07:07:51.149Z,61.39
2023-01-19T07:08:51.133Z,56.07
2023-01-19T07:09:53.832Z,58.01
2023-01-19T07:11:25.850Z,56.88
2023-01-19T07:11:52.110Z,61.39
2023-01-19T07:12:51.138Z,60.42
2023-01-19T07:13:51.085Z,60.26
2023-01-19T07:14:52.102Z,60.10
2023-01-19T07:15:51.084Z,58.49
2023-01-19T07:16:51.082Z,60.59
2023-01-19T07:17:51.093Z,60.42
2023-01-19T07:18:51.078Z,59.94
2023-01-19T07:19:51.056Z,61.07
2023-01-19T07:20:51.042Z,59.94
2023-01-19T07:21:51.057Z,60.42
2023-01-19T07:22:51.044Z,61.07
2023-01-19T07:23:51.047Z,60.91
2023-01-19T07:24:51.037Z,59.62
2023-01-19T07:25:51.022Z,59.30
2023-01-19T07:26:51.013Z,59.14
2023-01-19T07:27:51.005Z,58.97
2023-01-19T07:28:50.990Z,59.46
2023-01-19T07:29:51.997Z,60.26
2023-01-19T07:30:51.064Z,59.14
2023-01-19T07:31:51.053Z,59.78
2023-01-19T07:32:50.961Z,60.10
2023-01-19T07:33:50.960Z,58.49
2023-01-19T07:34:50.966Z,60.75
2023-01-19T07:35:50.952Z,61.07
2023-01-19T07:36:50.941Z,59.30
2023-01-19T07:37:50.954Z,58.17
2023-01-19T07:38:50.930Z,57.85
2023-01-19T07:39:50.945Z,57.36
2023-01-19T07:40:50.918Z,59.62
2023-01-19T07:41:50.918Z,58.01
2023-01-19T07:42:50.910Z,58.65
2023-01-19T07:43:50.888Z,57.20
2023-01-19T07:44:50.915Z,57.52
2023-01-19T07:45:51.000Z,58.01
2023-01-19T07:46:50.887Z,62.52
2023-01-19T07:47:50.869Z,56.24
2023-01-19T07:48:50.874Z,59.62
2023-01-19T07:49:50.864Z,58.81
2023-01-19T07:50:50.865Z,58.49
2023-01-19T07:51:50.837Z,59.14
2023-01-19T07:52:50.851Z,60.10
2023-01-19T07:53:50.901Z,58.01
2023-01-19T07:54:50.844Z,55.91
2023-01-19T07:55:50.830Z,60.42
2023-01-19T07:56:50.821Z,58.65
2023-01-19T07:57:50.807Z,60.10
2023-01-19T07:58:50.807Z,58.01
2023-01-19T07:59:50.797Z,57.20
2023-01-19T08:00:50.840Z,57.52
2023-01-19T08:01:50.970Z,57.04
2023-01-19T08:02:50.773Z,59.62
2023-01-19T08:03:50.816Z,60.59
2023-01-19T08:04:50.832Z,56.07
2023-01-19T08:05:50.768Z,55.91
2023-01-19T08:06:50.758Z,58.97
2023-01-19T08:07:53.245Z,53.82
2023-01-19T08:08:50.735Z,59.14
2023-01-19T08:09:50.729Z,57.85
2023-01-19T08:10:50.768Z,58.17
2023-01-19T08:11:50.719Z,58.01
2023-01-19T08:12:50.733Z,55.75
2023-01-19T08:13:50.716Z,56.56
2023-01-19T08:14:50.706Z,55.11
2023-01-19T08:15:50.803Z,57.85
2023-01-19T08:16:50.677Z,58.17
2023-01-19T08:17:50.693Z,58.01
2023-01-19T08:18:50.677Z,57.20
2023-01-19T08:19:50.688Z,57.85
2023-01-19T08:20:50.669Z,58.33
2023-01-19T08:21:50.656Z,58.17
2023-01-19T08:22:50.666Z,59.30
2023-01-19T08:23:50.696Z,57.36
2023-01-19T08:24:50.658Z,55.91
2023-01-19T08:25:50.630Z,58.17
2023-01-19T08:26:50.620Z,57.04
2023-01-19T08:27:50.617Z,58.33
2023-01-19T08:28:50.625Z,59.14
2023-01-19T08:29:50.598Z,57.69
2023-01-19T08:30:50.703Z,58.81
2023-01-19T08:31:50.649Z,55.75
2023-01-19T08:32:50.580Z,58.33
2023-01-19T08:33:50.595Z,57.52
2023-01-19T08:34:50.581Z,57.69
2023-01-19T08:35:50.556Z,59.94
2023-01-19T08:36:50.562Z,60.42
2023-01-19T08:37:50.538Z,59.94
2023-01-19T08:38:51.556Z,58.65
2023-01-19T08:39:50.528Z,58.97
2023-01-19T08:40:50.519Z,59.94
2023-01-19T08:41:50.524Z,60.42
2023-01-19T08:42:50.532Z,55.27
2023-01-19T08:43:50.512Z,57.36
2023-01-19T08:44:58.116Z,56.72
2023-01-19T08:45:52.500Z,58.49
2023-01-19T08:46:50.503Z,59.94
2023-01-19T08:47:50.512Z,61.07
2023-01-19T08:48:50.651Z,58.81
2023-01-19T08:49:50.485Z,59.62
2023-01-19T08:50:50.481Z,57.36
2023-01-19T08:51:50.474Z,58.01
2023-01-19T08:52:50.455Z,57.69
2023-01-19T08:53:50.486Z,58.65
2023-01-19T08:54:50.458Z,58.65
2023-01-19T08:55:50.461Z,58.97
2023-01-19T08:56:50.433Z,55.91
2023-01-19T08:57:50.426Z,57.04
2023-01-19T08:59:03.511Z,56.56
2023-01-19T08:59:52.416Z,56.07
2023-01-19T09:00:50.475Z,58.01
2023-01-19T09:01:50.550Z,59.62
2023-01-19T09:02:50.491Z,57.20
2023-01-19T09:03:50.381Z,56.88
2023-01-19T09:04:50.395Z,58.01
2023-01-19T09:05:50.411Z,59.30
2023-01-19T09:06:50.360Z,57.69
2023-01-19T09:07:50.364Z,58.01
2023-01-19T09:08:51.365Z,57.69
2023-01-19T09:09:50.348Z,54.46
2023-01-19T09:10:50.345Z,57.36
2023-01-19T09:11:50.323Z,60.10
2023-01-19T09:12:50.333Z,56.72
2023-01-19T09:13:50.336Z,57.69
2023-01-19T09:14:50.325Z,55.43
2023-01-19T09:15:50.338Z,55.75
2023-01-19T09:16:50.313Z,58.97
2023-01-19T09:17:50.296Z,58.01
2023-01-19T09:18:50.283Z,57.52
2023-01-19T09:19:50.283Z,54.46
2023-01-19T09:20:50.282Z,57.04
2023-01-19T09:21:50.288Z,56.88
2023-01-19T09:22:50.265Z,58.01
2023-01-19T09:23:50.255Z,56.56
2023-01-19T09:24:50.239Z,58.01
2023-01-19T09:25:50.243Z,58.49
2023-01-19T09:26:50.248Z,56.72
2023-01-19T09:27:50.265Z,57.20
2023-01-19T09:28:50.243Z,56.72
2023-01-19T09:29:50.227Z,56.88
2023-01-19T09:30:50.343Z,58.01
2023-01-19T09:31:50.255Z,57.20
2023-01-19T09:32:50.208Z,57.52
2023-01-19T09:33:50.208Z,56.88
2023-01-19T09:34:50.192Z,56.88
2023-01-19T09:35:50.202Z,58.65
2023-01-19T09:36:50.183Z,57.52
2023-01-19T09:37:50.183Z,58.65
2023-01-19T09:38:50.178Z,56.40
2023-01-19T09:39:50.276Z,56.56
2023-01-19T09:40:50.160Z,56.72
2023-01-19T09:41:50.179Z,55.75
2023-01-19T09:42:50.152Z,56.24
2023-01-19T09:43:50.137Z,57.36
2023-01-19T09:44:50.132Z,57.04
2023-01-19T09:45:50.163Z,56.24
2023-01-19T09:46:50.186Z,55.91
2023-01-19T09:47:50.117Z,57.04
2023-01-19T09:48:50.294Z,58.01
2023-01-19T09:49:50.093Z,55.59
2023-01-19T09:50:50.088Z,54.46
2023-01-19T09:51:50.087Z,55.27
2023-01-19T09:52:50.067Z,58.97
2023-01-19T09:53:50.079Z,58.49
2023-01-19T09:54:50.084Z,56.07
2023-01-19T09:55:50.063Z,57.04
2023-01-19T09:56:52.652Z,59.14
2023-01-19T09:57:51.042Z,57.52
2023-01-19T09:58:50.056Z,57.36
2023-01-19T09:59:50.041Z,58.33
2023-01-19T10:00:50.142Z,57.20
2023-01-19T10:01:50.075Z,57.85
2023-01-19T10:02:50.075Z,57.36
2023-01-19T10:03:51.021Z,58.33
2023-01-19T10:04:50.020Z,56.40
2023-01-19T10:05:50.021Z,56.56
2023-01-19T10:06:49.990Z,58.49
2023-01-19T10:07:49.988Z,61.87
2023-01-19T10:08:49.991Z,59.62
2023-01-19T10:09:49.984Z,59.94
2023-01-19T10:10:49.977Z,58.17
2023-01-19T10:11:53.559Z,56.07
2023-01-19T10:12:51.015Z,61.23
2023-01-19T10:13:49.980Z,57.85
2023-01-19T10:14:49.933Z,58.33
2023-01-19T10:15:49.948Z,58.33
2023-01-19T10:16:49.932Z,58.33
2023-01-19T10:17:49.931Z,59.46
2023-01-19T10:18:49.923Z,57.20
2023-01-19T10:19:49.907Z,58.33
2023-01-19T10:20:49.921Z,59.62
2023-01-19T10:21:49.905Z,56.88
2023-01-19T10:22:49.896Z,56.72
2023-01-19T10:23:49.897Z,59.14
2023-01-19T10:24:49.891Z,58.17
2023-01-19T10:25:49.924Z,58.33
2023-01-19T10:26:49.889Z,60.10
2023-01-19T10:27:49.881Z,57.20
2023-01-19T10:28:49.859Z,56.88
2023-01-19T10:29:49.888Z,58.01
2023-01-19T10:30:49.848Z,58.49
2023-01-19T10:31:49.887Z,57.85
2023-01-19T10:32:49.826Z,54.46
2023-01-19T10:33:49.821Z,57.04
2023-01-19T10:34:49.827Z,58.49
2023-01-19T10:35:49.812Z,56.88
2023-01-19T10:36:49.881Z,57.52
2023-01-19T10:37:49.793Z,56.40
2023-01-19T10:38:49.816Z,55.43
2023-01-19T10:39:49.816Z,59.62
2023-01-19T10:40:49.785Z,59.46
2023-01-19T10:41:49.788Z,57.36
2023-01-19T10:42:49.884Z,57.52
2023-01-19T10:43:49.770Z,56.72
2023-01-19T10:44:49.826Z,58.81
2023-01-19T10:45:49.775Z,58.97
2023-01-19T10:46:49.745Z,58.01
2023-01-19T10:47:49.765Z,58.17
2023-01-19T10:48:49.745Z,55.27
2023-01-19T10:49:49.717Z,54.14
2023-01-19T10:50:49.715Z,58.97
2023-01-19T10:51:49.770Z,56.56
2023-01-19T10:52:49.717Z,58.17
2023-01-19T10:53:49.694Z,57.69
2023-01-19T10:54:49.742Z,58.49
2023-01-19T10:55:49.673Z,59.30
2023-01-19T10:56:50.700Z,58.01
2023-01-19T10:57:49.672Z,57.85
2023-01-19T10:58:49.691Z,58.01
2023-01-19T10:59:49.653Z,58.65
2023-01-19T11:00:49.731Z,58.81
2023-01-19T11:01:49.795Z,58.65
2023-01-19T11:02:49.717Z,56.40
2023-01-19T11:03:49.713Z,59.30
2023-01-19T11:04:50.191Z,60.26
2023-01-19T11:05:50.706Z,56.24
2023-01-19T11:06:49.625Z,58.01
2023-01-19T11:07:49.616Z,57.85
2023-01-19T11:08:49.623Z,59.30
2023-01-19T11:09:49.648Z,54.62
2023-01-19T11:10:49.582Z,57.85
2023-01-19T11:11:49.579Z,57.36
2023-01-19T11:12:49.579Z,57.20
2023-01-19T11:13:49.575Z,59.62
2023-01-19T11:14:49.584Z,58.49
2023-01-19T11:15:49.571Z,57.85
2023-01-19T11:16:49.593Z,59.94
2023-01-19T11:17:49.542Z,57.04
2023-01-19T11:18:49.544Z,58.01
2023-01-19T11:19:49.541Z,56.72
2023-01-19T11:20:49.533Z,56.72
2023-01-19T11:21:49.520Z,59.62
2023-01-19T11:22:49.507Z,55.75
2023-01-19T11:23:49.519Z,57.85
2023-01-19T11:24:49.507Z,59.62
2023-01-19T11:25:49.520Z,59.30
2023-01-19T11:26:49.511Z,61.07
2023-01-19T11:27:49.490Z,56.56
2023-01-19T11:28:49.481Z,58.17
2023-01-19T11:29:49.466Z,58.65
2023-01-19T11:30:49.521Z,57.52
2023-01-19T11:31:49.610Z,56.72
2023-01-19T11:32:49.472Z,55.75
2023-01-19T11:33:50.791Z,59.14
2023-01-19T11:34:50.452Z,56.72
2023-01-19T11:35:49.444Z,56.56
2023-01-19T11:36:49.434Z,59.62
2023-01-19T11:37:49.429Z,57.69
2023-01-19T11:38:49.404Z,56.72
2023-01-19T11:39:49.417Z,58.81
2023-01-19T11:40:49.412Z,59.78
2023-01-19T11:41:49.391Z,58.17
2023-01-19T11:42:49.387Z,57.04
2023-01-19T11:43:49.687Z,58.01
2023-01-19T11:44:49.386Z,58.97
2023-01-19T11:45:49.408Z,56.88
2023-01-19T11:46:50.189Z,58.33
2023-01-19T11:47:50.359Z,59.78
2023-01-19T11:48:49.354Z,55.91
2023-01-19T11:49:49.347Z,59.46
2023-01-19T11:50:49.363Z,58.65
2023-01-19T11:51:49.351Z,59.46
2023-01-19T11:52:49.336Z,59.62
2023-01-19T11:53:49.322Z,59.30
2023-01-19T11:54:49.334Z,58.49
2023-01-19T11:55:49.312Z,58.17
2023-01-19T11:56:49.330Z,58.65
2023-01-19T11:57:49.300Z,59.14
2023-01-19T11:58:49.294Z,58.97
2023-01-19T11:59:51.944Z,58.17
2023-01-19T12:00:49.290Z,56.88
2023-01-19T12:01:49.430Z,57.04
2023-01-19T12:02:49.281Z,59.94
2023-01-19T12:03:49.266Z,57.85
2023-01-19T12:04:49.254Z,58.97
2023-01-19T12:05:49.244Z,58.49
2023-01-19T12:06:49.225Z,56.40
2023-01-19T12:07:49.333Z,59.78
2023-01-19T12:08:49.235Z,59.94
2023-01-19T12:09:49.222Z,60.75
2023-01-19T12:10:49.218Z,58.81
2023-01-19T12:11:49.215Z,58.17
2023-01-19T12:12:49.221Z,59.78
2023-01-19T12:13:49.242Z,59.46
2023-01-19T12:14:49.182Z,59.62
2023-01-19T12:15:49.178Z,59.14
2023-01-19T12:16:49.231Z,60.75
2023-01-19T12:17:49.204Z,60.59
2023-01-19T12:18:49.155Z,58.97
2023-01-19T12:19:49.154Z,60.42
2023-01-19T12:20:49.152Z,62.68
2023-01-19T12:21:49.135Z,57.52
2023-01-19T12:22:49.139Z,59.46
2023-01-19T12:23:49.145Z,58.81
2023-01-19T12:24:49.139Z,58.17
2023-01-19T12:25:49.111Z,58.33
2023-01-19T12:26:49.106Z,59.94
2023-01-19T12:27:49.134Z,58.49
2023-01-19T12:28:49.095Z,61.07
2023-01-19T12:29:49.098Z,59.14
2023-01-19T12:30:49.158Z,60.26
2023-01-19T12:31:51.709Z,60.75
2023-01-19T12:32:50.083Z,60.10
2023-01-19T12:33:49.089Z,59.14
2023-01-19T12:34:49.074Z,58.17
2023-01-19T12:35:49.064Z,57.85
2023-01-19T12:36:49.048Z,58.49
2023-01-19T12:37:49.037Z,57.36
2023-01-19T12:38:49.050Z,58.17
2023-01-19T12:39:49.030Z,59.46
2023-01-19T12:40:49.015Z,58.81
2023-01-19T12:41:49.024Z,56.56
2023-01-19T12:42:49.067Z,57.20
2023-01-19T12:43:48.996Z,60.42
2023-01-19T12:44:48.990Z,59.62
2023-01-19T12:45:49.041Z,57.04
2023-01-19T12:46:48.980Z,58.17
2023-01-19T12:47:53.070Z,56.88
2023-01-19T12:48:49.976Z,58.17
2023-01-19T12:49:49.034Z,58.17
2023-01-19T12:50:48.987Z,55.75
2023-01-19T12:51:48.958Z,58.65
2023-01-19T12:52:48.938Z,57.52